Time;durP1;ratioP1;P1;durP2;ratioP2;P2;SDS_P1;SDS_P2;PMS_P1;PMS_P2;Temp;Humidity;BMP_temperature;BMP_pressure;BME280_temperature;BME280_humidity;BME280_pressure;Samples;Min_cycle;Max_cycle;Signal;HPM_P1;HPM_P2
2022/10/31 00:01:32;;;;;;;3.13;1.70;;;18.30;58.70;;;;;;6205193;22;20155;-83
2022/10/31 00:04:01;;;;;;;1.60;1.42;;;18.40;58.80;;;;;;6205789;22;20511;-86
2022/10/31 00:06:31;;;;;;;3.42;1.60;;;18.30;58.70;;;;;;6255457;22;20183;-84
2022/10/31 00:09:02;;;;;;;2.10;1.85;;;18.30;58.80;;;;;;6255280;22;20159;-85
2022/10/31 00:11:31;;;;;;;1.92;1.63;;;18.30;58.80;;;;;;6255682;22;20158;-85
2022/10/31 00:14:00;;;;;;;3.03;1.80;;;18.30;58.80;;;;;;6204755;22;20247;-85
2022/10/31 00:16:29;;;;;;;3.78;1.73;;;18.30;58.80;;;;;;6255171;22;20156;-85
2022/10/31 00:19:00;;;;;;;1.77;1.60;;;18.30;58.90;;;;;;6229879;22;20151;-85
2022/10/31 00:21:28;;;;;;;2.47;1.63;;;18.30;58.90;;;;;;6230679;22;20179;-85
2022/10/31 00:23:58;;;;;;;2.20;1.90;;;18.20;59.00;;;;;;6255257;22;20195;-84
2022/10/31 00:26:27;;;;;;;1.80;1.55;;;18.30;58.90;;;;;;6230877;22;20574;-85
2022/10/31 00:28:56;;;;;;;2.45;1.45;;;18.30;59.00;;;;;;6205497;22;20152;-85
2022/10/31 00:31:24;;;;;;;2.22;1.50;;;18.20;58.90;;;;;;6229891;22;20159;-85
2022/10/31 00:33:52;;;;;;;2.72;1.70;;;18.30;59.00;;;;;;6255497;22;20159;-85
2022/10/31 00:36:20;;;;;;;3.13;1.55;;;18.30;58.90;;;;;;6229939;22;20156;-85
2022/10/31 00:38:48;;;;;;;2.78;1.60;;;18.30;59.00;;;;;;6255172;22;20160;-84
2022/10/31 00:41:16;;;;;;;1.83;1.63;;;18.30;59.10;;;;;;6255284;22;20162;-85
2022/10/31 00:43:44;;;;;;;2.08;1.70;;;18.30;58.90;;;;;;6229718;22;20176;-85
2022/10/31 00:46:15;;;;;;;3.47;1.67;;;18.20;58.80;;;;;;6229469;22;20152;-84
2022/10/31 00:48:42;;;;;;;1.92;1.52;;;18.30;59.00;;;;;;6229757;22;20584;-84
2022/10/31 00:51:10;;;;;;;1.92;1.60;;;18.20;59.00;;;;;;6255036;22;20175;-84
2022/10/31 00:53:37;;;;;;;2.33;1.55;;;18.20;58.90;;;;;;6255062;22;20152;-85
2022/10/31 00:56:05;;;;;;;2.08;1.75;;;18.20;58.90;;;;;;6255101;22;20155;-84
2022/10/31 00:58:35;;;;;;;2.78;1.75;;;18.30;59.70;;;;;;6204717;22;20235;-84
2022/10/31 01:01:02;;;;;;;1.58;1.48;;;18.30;59.10;;;;;;6255066;22;20647;-85
2022/10/31 01:03:31;;;;;;;2.58;1.63;;;18.20;59.10;;;;;;6254575;22;20203;-85
2022/10/31 01:06:06;;;;;;;2.50;1.80;;;18.20;59.00;;;;;;6229559;22;20250;-85
2022/10/31 01:08:33;;;;;;;1.92;1.70;;;18.20;59.00;;;;;;6256033;22;20551;-85
2022/10/31 01:11:04;;;;;;;1.95;1.50;;;18.20;59.00;;;;;;6254429;22;20196;-85
2022/10/31 01:13:32;;;;;;;2.85;1.63;;;18.20;59.10;;;;;;6255598;22;20186;-85
2022/10/31 01:15:59;;;;;;;2.13;1.65;;;18.10;59.20;;;;;;6203952;22;20198;-85
2022/10/31 01:18:26;;;;;;;2.20;1.80;;;18.30;59.10;;;;;;6229143;22;20211;-85
2022/10/31 01:21:11;;;;;;;2.42;1.77;;;18.20;59.10;;;;;;6229276;22;20583;-84
2022/10/31 01:23:41;;;;;;;1.90;1.67;;;18.20;59.10;;;;;;6306926;22;20246;-85
2022/10/31 01:26:17;;;;;;;4.22;1.92;;;18.20;59.10;;;;;;6254966;22;20156;-85
2022/10/31 01:28:46;;;;;;;2.42;1.63;;;18.20;59.20;;;;;;6306469;22;20490;-85
2022/10/31 01:31:12;;;;;;;2.35;1.90;;;18.30;59.10;;;;;;6306578;22;20128;-84
2022/10/31 01:33:39;;;;;;;2.03;1.67;;;18.20;59.20;;;;;;6306906;22;20563;-84
2022/10/31 01:36:14;;;;;;;3.10;1.70;;;18.20;59.20;;;;;;6306596;22;20136;-84
2022/10/31 01:38:44;;;;;;;2.70;2.00;;;18.20;59.20;;;;;;6306389;22;20155;-85
2022/10/31 01:41:11;;;;;;;3.15;1.70;;;18.20;59.20;;;;;;6229267;22;20156;-85
2022/10/31 01:43:49;;;;;;;4.38;1.40;;;18.20;59.90;;;;;;6280694;22;20299;-84
2022/10/31 01:46:17;;;;;;;2.95;1.95;;;18.20;59.20;;;;;;6280800;22;20219;-85
2022/10/31 01:48:43;;;;;;;1.98;1.50;;;18.20;59.20;;;;;;6281501;22;20452;-84
2022/10/31 01:51:09;;;;;;;2.03;1.60;;;18.20;59.20;;;;;;6306421;22;20135;-84
2022/10/31 01:53:35;;;;;;;2.47;1.70;;;18.20;59.20;;;;;;6280745;22;20152;-85
2022/10/31 01:56:01;;;;;;;2.10;1.63;;;18.20;59.20;;;;;;6280465;22;20534;-85
2022/10/31 01:58:28;;;;;;;2.05;1.73;;;18.20;59.30;;;;;;6280453;22;20151;-84
2022/10/31 02:00:55;;;;;;;1.80;1.70;;;18.20;59.20;;;;;;6280792;22;20151;-85
2022/10/31 02:03:21;;;;;;;2.90;1.60;;;18.20;59.20;;;;;;6306239;22;20188;-85
2022/10/31 02:05:47;;;;;;;2.17;1.70;;;18.10;59.20;;;;;;6306305;22;20453;-85
2022/10/31 02:08:20;;;;;;;1.63;1.38;;;18.20;59.20;;;;;;6306548;22;20171;-85
2022/10/31 02:10:49;;;;;;;2.63;1.58;;;18.20;59.10;;;;;;6280843;22;20633;-85
2022/10/31 02:13:15;;;;;;;1.90;1.60;;;18.20;59.20;;;;;;6229066;22;20144;-85
2022/10/31 02:15:41;;;;;;;1.98;1.58;;;18.20;59.20;;;;;;6306626;22;20128;-85
2022/10/31 02:18:07;;;;;;;2.05;1.50;;;18.20;59.20;;;;;;6280065;22;20155;-85
2022/10/31 02:20:42;;;;;;;2.55;1.40;;;18.20;59.20;;;;;;6306517;22;20132;-84
2022/10/31 02:23:20;;;;;;;1.98;1.70;;;18.10;59.20;;;;;;6306665;22;20139;-85
2022/10/31 02:26:21;;;;;;;3.40;1.70;;;18.20;59.20;;;;;;6306556;22;20140;-85
2022/10/31 02:29:11;;;;;;;2.38;1.83;;;18.20;59.30;;;;;;6306074;22;20144;-84
2022/10/31 02:31:56;;;;;;;2.13;1.70;;;18.20;59.20;;;;;;6238559;22;20186;-85
2022/10/31 02:34:44;;;;;;;2.00;1.55;;;18.10;59.30;;;;;;6232896;22;20159;-84
2022/10/31 02:37:16;;;;;;;2.10;1.70;;;18.20;59.20;;;;;;6306204;22;20152;-85
2022/10/31 02:40:05;;;;;;;2.20;1.90;;;18.20;59.30;;;;;;6306408;22;20205;-85
2022/10/31 02:42:51;;;;;;;1.52;1.42;;;18.10;60.00;;;;;;6306628;22;20167;-85
2022/10/31 02:45:26;;;;;;;2.33;1.80;;;18.10;59.30;;;;;;6280550;22;20528;-84
2022/10/31 02:47:58;;;;;;;2.65;1.70;;;18.10;59.50;;;;;;6280082;22;20171;-85
2022/10/31 02:50:28;;;;;;;1.83;1.60;;;18.20;59.50;;;;;;6229631;22;20239;-84
2022/10/31 02:52:54;;;;;;;2.90;1.48;;;18.10;59.40;;;;;;6280682;22;20575;-85
2022/10/31 02:55:44;;;;;;;2.45;1.92;;;18.10;59.40;;;;;;6306219;22;20211;-85
2022/10/31 02:58:13;;;;;;;2.45;1.70;;;18.20;59.30;;;;;;6259632;22;20144;-85
2022/10/31 03:00:48;;;;;;;2.28;1.70;;;18.10;59.30;;;;;;6306028;22;20124;-84
2022/10/31 03:03:19;;;;;;;3.08;1.80;;;18.10;59.30;;;;;;6304619;22;20218;-85
2022/10/31 03:05:55;;;;;;;2.03;1.63;;;18.10;59.40;;;;;;6304568;22;20128;-85
2022/10/31 03:08:57;;;;;;;3.33;1.50;;;18.20;59.30;;;;;;6279686;22;20147;-84
2022/10/31 03:11:24;;;;;;;3.25;1.67;;;18.10;59.20;;;;;;6288570;22;20135;-85
2022/10/31 03:13:55;;;;;;;1.83;1.42;;;18.10;59.30;;;;;;6280325;22;20155;-84
2022/10/31 03:16:37;;;;;;;1.90;1.48;;;18.10;59.50;;;;;;6280170;22;20242;-84
2022/10/31 03:19:12;;;;;;;2.85;1.60;;;18.10;59.50;;;;;;6306387;22;20211;-85
2022/10/31 03:21:47;;;;;;;1.98;1.60;;;18.10;59.50;;;;;;6306738;22;20140;-85
2022/10/31 03:24:15;;;;;;;2.47;1.83;;;18.10;59.60;;;;;;6306078;22;20181;-84
2022/10/31 03:26:43;;;;;;;2.58;1.52;;;18.10;59.30;;;;;;6280495;22;20159;-85
2022/10/31 03:29:10;;;;;;;2.63;1.73;;;18.10;59.40;;;;;;6305955;22;20136;-85
2022/10/31 03:31:41;;;;;;;2.50;1.80;;;18.10;59.40;;;;;;6306094;22;20128;-85
2022/10/31 03:34:07;;;;;;;2.75;1.70;;;18.10;59.40;;;;;;6280728;22;20587;-84
2022/10/31 03:36:33;;;;;;;3.03;1.65;;;18.10;59.50;;;;;;6306503;22;20147;-85
2022/10/31 03:39:01;;;;;;;2.35;1.80;;;18.10;59.60;;;;;;6306803;22;20141;-85
2022/10/31 03:41:28;;;;;;;2.03;1.52;;;18.20;59.70;;;;;;6312513;22;20182;-85
2022/10/31 03:43:57;;;;;;;2.47;1.77;;;18.10;59.50;;;;;;6314512;22;20192;-85
2022/10/31 03:46:23;;;;;;;2.55;1.70;;;18.10;59.60;;;;;;6289020;22;20171;-84
2022/10/31 03:48:54;;;;;;;1.65;1.48;;;18.10;59.50;;;;;;6314377;22;20124;-85
2022/10/31 03:51:35;;;;;;;1.80;1.40;;;18.10;59.70;;;;;;6259651;22;20148;-84
2022/10/31 03:54:25;;;;;;;3.38;1.90;;;18.10;59.60;;;;;;6310338;22;20171;-84
2022/10/31 03:56:56;;;;;;;2.42;1.67;;;18.00;59.50;;;;;;6246878;22;20217;-85
2022/10/31 03:59:31;;;;;;;2.88;1.80;;;18.10;59.50;;;;;;6298860;22;20156;-85
2022/10/31 04:01:59;;;;;;;2.50;1.95;;;18.10;59.60;;;;;;6192193;22;1204835;-85
2022/10/31 04:04:29;;;;;;;1.65;1.40;;;18.10;59.60;;;;;;6264660;22;20539;-84
2022/10/31 04:07:04;;;;;;;2.58;1.60;;;18.10;59.60;;;;;;6318326;22;20139;-84
2022/10/31 04:09:38;;;;;;;3.28;1.85;;;18.10;59.60;;;;;;6238242;22;20212;-84
2022/10/31 04:12:11;;;;;;;1.88;1.70;;;18.00;59.50;;;;;;6236311;22;20223;-84
2022/10/31 04:14:41;;;;;;;1.50;1.40;;;18.10;59.60;;;;;;6230046;22;20160;-85
2022/10/31 04:17:09;;;;;;;2.67;2.08;;;18.10;59.60;;;;;;6255693;22;20160;-84
2022/10/31 04:19:35;;;;;;;1.88;1.70;;;18.10;59.60;;;;;;6281448;22;20148;-85
2022/10/31 04:22:01;;;;;;;2.08;1.45;;;18.10;59.60;;;;;;6281508;22;20593;-85
2022/10/31 04:24:27;;;;;;;2.22;1.50;;;18.10;59.70;;;;;;6281524;22;20180;-85
2022/10/31 04:26:53;;;;;;;1.70;1.60;;;18.10;59.60;;;;;;6281234;22;20430;-85
2022/10/31 04:29:19;;;;;;;2.72;1.70;;;18.10;59.70;;;;;;6307596;22;20129;-84
2022/10/31 04:31:49;;;;;;;1.73;1.60;;;18.10;59.60;;;;;;6281666;22;20148;-84
2022/10/31 04:34:15;;;;;;;1.90;1.70;;;18.10;59.70;;;;;;6229650;22;20533;-85
2022/10/31 04:36:41;;;;;;;2.15;1.70;;;18.10;59.60;;;;;;6281561;22;20144;-84
2022/10/31 04:39:11;;;;;;;2.40;1.70;;;18.10;59.70;;;;;;6281122;22;20152;-84
2022/10/31 04:41:36;;;;;;;2.13;1.60;;;18.10;59.70;;;;;;6254976;22;20159;-85
2022/10/31 04:44:02;;;;;;;4.13;1.80;;;18.10;59.60;;;;;;6281975;22;20285;-84
2022/10/31 04:46:28;;;;;;;1.73;1.60;;;18.00;59.70;;;;;;6306989;22;20198;-84
2022/10/31 04:48:54;;;;;;;2.58;1.80;;;18.00;59.70;;;;;;6307037;22;20556;-85
2022/10/31 04:51:20;;;;;;;1.50;1.40;;;18.00;59.60;;;;;;6281421;22;20457;-85
2022/10/31 04:53:46;;;;;;;2.05;1.65;;;18.10;59.80;;;;;;6281633;22;20154;-85
2022/10/31 04:56:12;;;;;;;1.83;1.60;;;18.00;59.80;;;;;;6308569;22;20227;-84
2022/10/31 04:58:38;;;;;;;1.90;1.60;;;18.00;59.70;;;;;;6306922;22;20179;-84
2022/10/31 05:01:04;;;;;;;1.65;1.55;;;18.00;59.70;;;;;;6281523;22;20514;-85
2022/10/31 05:03:30;;;;;;;2.63;1.73;;;18.00;59.70;;;;;;6306605;22;20184;-85
2022/10/31 05:05:56;;;;;;;3.75;1.88;;;18.00;59.70;;;;;;6306918;22;20568;-85
2022/10/31 05:08:26;;;;;;;3.85;1.77;;;18.00;59.70;;;;;;6306758;22;20569;-84
2022/10/31 05:10:52;;;;;;;2.90;1.70;;;18.00;59.70;;;;;;6254859;22;20152;-84
2022/10/31 05:13:19;;;;;;;2.28;1.70;;;18.00;59.60;;;;;;6280923;22;20305;-85
2022/10/31 05:15:44;;;;;;;2.00;1.70;;;18.00;59.60;;;;;;6281728;22;20270;-84
2022/10/31 05:18:14;;;;;;;2.60;1.50;;;18.10;59.70;;;;;;6281982;22;20132;-84
2022/10/31 05:20:43;;;;;;;3.05;1.50;;;18.10;59.80;;;;;;6254527;22;20175;-85
2022/10/31 05:23:13;;;;;;;3.25;1.73;;;18.00;59.60;;;;;;6229474;22;20151;-85
2022/10/31 05:25:43;;;;;;;2.30;1.73;;;18.10;59.80;;;;;;6229334;22;20160;-84
2022/10/31 05:28:12;;;;;;;2.25;1.60;;;18.00;59.70;;;;;;6229195;22;20183;-84
2022/10/31 05:30:40;;;;;;;2.05;1.50;;;18.10;59.80;;;;;;6229254;22;20163;-84
2022/10/31 05:33:06;;;;;;;1.70;1.40;;;18.00;59.90;;;;;;6203603;22;20152;-84
2022/10/31 05:35:35;;;;;;;2.88;1.70;;;17.90;59.80;;;;;;6255837;22;20460;-84
2022/10/31 05:38:03;;;;;;;2.20;1.77;;;18.00;59.80;;;;;;6203863;22;20152;-84
2022/10/31 05:40:29;;;;;;;1.92;1.67;;;18.10;59.90;;;;;;6228988;22;20164;-85
2022/10/31 05:42:56;;;;;;;1.60;1.50;;;18.00;59.80;;;;;;6255025;22;20175;-84
2022/10/31 05:45:22;;;;;;;2.88;1.70;;;18.00;59.80;;;;;;6281092;22;20251;-84
2022/10/31 05:47:59;;;;;;;2.83;1.70;;;18.00;59.80;;;;;;6280875;22;20160;-84
2022/10/31 05:50:25;;;;;;;1.90;1.50;;;18.00;59.80;;;;;;6229609;22;20152;-84
2022/10/31 05:52:55;;;;;;;1.83;1.52;;;18.00;59.70;;;;;;6281002;22;20136;-84
2022/10/31 05:55:21;;;;;;;2.33;1.70;;;18.00;59.90;;;;;;6281092;22;20128;-84
2022/10/31 05:57:48;;;;;;;3.13;1.60;;;18.00;59.90;;;;;;6280658;22;20513;-84
2022/10/31 06:00:16;;;;;;;2.97;1.65;;;17.90;59.90;;;;;;6280864;22;20158;-84
2022/10/31 06:02:42;;;;;;;2.05;1.70;;;18.00;59.90;;;;;;6254257;22;20196;-84
2022/10/31 06:05:09;;;;;;;2.17;1.40;;;18.00;60.10;;;;;;6255171;22;20179;-84
2022/10/31 06:07:37;;;;;;;1.77;1.60;;;18.00;59.90;;;;;;6228652;22;20152;-85
2022/10/31 06:10:04;;;;;;;1.52;1.40;;;18.00;60.00;;;;;;6228633;22;20152;-84
2022/10/31 06:12:31;;;;;;;2.10;1.50;;;18.10;59.80;;;;;;6258844;22;20151;-84
2022/10/31 06:15:00;;;;;;;1.77;1.45;;;18.10;59.60;;;;;;6284368;22;20142;-84
2022/10/31 06:17:27;;;;;;;1.92;1.67;;;18.10;59.40;;;;;;6230316;22;20159;-83
2022/10/31 06:19:52;;;;;;;2.85;1.52;;;18.10;59.20;;;;;;6281844;22;20178;-84
2022/10/31 06:22:18;;;;;;;1.95;1.70;;;18.20;59.00;;;;;;6254959;22;20235;-83
2022/10/31 06:24:45;;;;;;;2.17;1.70;;;18.20;58.80;;;;;;6280851;22;20171;-84
2022/10/31 06:27:11;;;;;;;2.03;1.50;;;18.30;58.80;;;;;;6281341;22;20151;-84
2022/10/31 06:29:37;;;;;;;1.92;1.70;;;18.30;58.70;;;;;;6280464;22;20525;-84
2022/10/31 06:32:03;;;;;;;1.50;1.40;;;18.30;58.70;;;;;;6280151;22;20146;-84
2022/10/31 06:34:29;;;;;;;2.08;1.60;;;18.30;58.80;;;;;;6280424;22;20148;-84
2022/10/31 06:36:55;;;;;;;1.95;1.42;;;18.40;58.80;;;;;;6280782;22;20515;-84
2022/10/31 06:39:21;;;;;;;2.45;1.83;;;18.40;58.90;;;;;;6280546;22;20155;-84
2022/10/31 06:41:51;;;;;;;2.58;1.40;;;18.40;58.70;;;;;;6280275;22;20548;-84
2022/10/31 06:44:17;;;;;;;2.00;1.42;;;18.40;58.70;;;;;;6254824;22;20258;-84
2022/10/31 06:46:43;;;;;;;2.03;1.58;;;18.40;58.70;;;;;;6282176;22;20507;-83
2022/10/31 06:49:09;;;;;;;1.90;1.67;;;18.30;58.80;;;;;;6280509;22;20227;-84
2022/10/31 06:51:35;;;;;;;1.52;1.40;;;18.40;58.70;;;;;;6282861;22;20500;-84
2022/10/31 06:54:05;;;;;;;1.80;1.70;;;18.40;58.60;;;;;;6282212;22;20231;-84
2022/10/31 06:56:32;;;;;;;1.73;1.60;;;18.40;58.70;;;;;;6230818;22;20164;-84
2022/10/31 06:58:57;;;;;;;1.98;1.58;;;18.40;58.60;;;;;;6283576;22;20136;-84
2022/10/31 07:01:27;;;;;;;2.08;1.50;;;18.50;58.70;;;;;;6309145;22;20137;-85
2022/10/31 07:03:53;;;;;;;2.03;1.60;;;18.40;59.30;;;;;;6230514;22;20200;-84
2022/10/31 07:06:19;;;;;;;1.52;1.42;;;18.40;58.60;;;;;;6311133;22;20142;-84
2022/10/31 07:08:48;;;;;;;1.95;1.60;;;18.40;58.60;;;;;;6285410;22;20171;-83
2022/10/31 07:11:15;;;;;;;3.40;1.33;;;18.40;58.60;;;;;;6289067;22;20144;-83
2022/10/31 07:13:40;;;;;;;1.40;1.30;;;18.40;58.60;;;;;;6311619;22;20226;-84
2022/10/31 07:16:14;;;;;;;1.67;1.35;;;18.50;58.70;;;;;;6315022;22;20151;-85
2022/10/31 07:18:41;;;;;;;1.40;1.30;;;18.50;58.50;;;;;;6317188;22;20148;-85
2022/10/31 07:21:11;;;;;;;1.70;1.58;;;18.50;58.40;;;;;;6318871;22;20164;-85
2022/10/31 07:23:46;;;;;;;1.30;1.13;;;18.50;58.40;;;;;;6291802;22;20172;-84
2022/10/31 07:26:15;;;;;;;1.50;1.40;;;18.50;58.40;;;;;;6316449;22;20228;-85
2022/10/31 07:28:44;;;;;;;1.67;1.40;;;18.60;58.40;;;;;;6288487;22;20140;-85
2022/10/31 07:31:16;;;;;;;1.48;1.38;;;18.60;58.40;;;;;;6288880;22;20413;-85
2022/10/31 07:33:45;;;;;;;1.67;1.40;;;18.60;58.40;;;;;;6314210;22;20463;-84
2022/10/31 07:36:12;;;;;;;1.42;1.33;;;18.60;58.50;;;;;;6288474;22;20285;-84
2022/10/31 07:38:38;;;;;;;1.52;1.30;;;18.60;58.40;;;;;;6314513;22;20705;-85
2022/10/31 07:41:05;;;;;;;1.63;1.50;;;18.50;58.40;;;;;;6289200;22;20185;-85
2022/10/31 07:43:32;;;;;;;1.58;1.30;;;18.60;58.50;;;;;;6313968;22;20140;-85
2022/10/31 07:45:58;;;;;;;1.92;1.50;;;18.60;58.50;;;;;;6288235;22;20171;-85
2022/10/31 07:48:27;;;;;;;2.13;1.40;;;18.60;59.10;;;;;;6288099;22;20140;-83
2022/10/31 07:50:53;;;;;;;1.45;1.35;;;18.60;58.40;;;;;;6287960;22;20211;-84
2022/10/31 07:53:19;;;;;;;2.03;1.50;;;18.60;58.50;;;;;;6313724;22;20128;-84
2022/10/31 07:55:45;;;;;;;1.92;1.42;;;18.60;58.50;;;;;;6313359;22;20185;-85
2022/10/31 07:58:13;;;;;;;2.35;1.55;;;18.60;58.50;;;;;;6287484;22;20146;-84
2022/10/31 08:00:47;;;;;;;1.52;1.30;;;18.70;58.50;;;;;;6287795;22;20232;-85
2022/10/31 08:03:20;;;;;;;1.67;1.58;;;18.60;58.40;;;;;;6269365;22;20194;-85
2022/10/31 08:05:47;;;;;;;1.17;1.08;;;18.60;58.30;;;;;;6211307;22;20152;-84
2022/10/31 08:08:20;;;;;;;1.52;1.42;;;18.60;58.40;;;;;;6262101;22;20526;-85
2022/10/31 08:10:50;;;;;;;1.48;1.38;;;18.70;58.40;;;;;;6175233;23;20232;-85
2022/10/31 08:13:16;;;;;;;1.35;1.20;;;18.60;58.40;;;;;;6199191;23;20157;-84
2022/10/31 08:15:44;;;;;;;1.85;1.40;;;18.70;58.40;;;;;;6250830;23;20146;-85
2022/10/31 08:18:16;;;;;;;1.58;1.30;;;18.70;58.40;;;;;;6162095;23;20152;-84
2022/10/31 08:20:49;;;;;;;1.52;1.30;;;18.70;58.40;;;;;;6141024;23;20607;-85
2022/10/31 08:23:21;;;;;;;2.47;1.42;;;18.70;58.30;;;;;;6138858;23;20742;-85
2022/10/31 08:25:50;;;;;;;1.30;1.20;;;18.70;58.40;;;;;;6137627;23;20171;-85
2022/10/31 08:28:19;;;;;;;1.73;1.45;;;18.70;58.40;;;;;;6143400;23;20147;-84
2022/10/31 08:31:06;;;;;;;2.22;1.40;;;18.70;58.40;;;;;;6142226;23;20210;-85
2022/10/31 08:33:37;;;;;;;1.75;1.40;;;18.70;58.50;;;;;;6141064;23;20198;-84
2022/10/31 08:36:16;;;;;;;1.70;1.55;;;18.70;58.60;;;;;;6138829;23;20155;-83
2022/10/31 08:38:47;;;;;;;1.60;1.30;;;18.70;58.70;;;;;;6139523;23;20619;-84
2022/10/31 08:41:17;;;;;;;1.55;1.30;;;18.60;58.50;;;;;;6153530;23;20212;-85
2022/10/31 08:43:43;;;;;;;2.05;1.45;;;18.70;58.60;;;;;;6200227;23;20177;-86
2022/10/31 08:46:12;;;;;;;2.05;1.30;;;18.70;58.40;;;;;;6198303;23;20153;-85
2022/10/31 08:48:38;;;;;;;2.40;1.65;;;18.70;59.10;;;;;;6199640;23;20154;-85
2022/10/31 08:51:08;;;;;;;2.55;1.50;;;18.70;58.50;;;;;;6198704;23;20213;-84
2022/10/31 08:53:37;;;;;;;1.60;1.40;;;18.70;58.60;;;;;;6173134;23;20154;-84
2022/10/31 08:56:06;;;;;;;1.65;1.30;;;18.70;58.70;;;;;;6240027;22;20534;-85
2022/10/31 08:58:38;;;;;;;1.65;1.40;;;18.70;58.80;;;;;;6203718;23;20604;-85
2022/10/31 09:01:21;;;;;;;1.58;1.30;;;18.60;58.70;;;;;;6227752;23;20149;-88
2022/10/31 09:04:13;;;;;;;1.60;1.50;;;18.70;58.80;;;;;;6182083;22;20207;-84
2022/10/31 09:06:45;;;;;;;1.85;1.60;;;18.70;58.70;;;;;;6226205;22;20231;-84
2022/10/31 09:09:26;;;;;;;1.58;1.45;;;18.70;58.70;;;;;;6261874;22;20156;-82
2022/10/31 09:11:52;;;;;;;1.98;1.30;;;18.60;58.70;;;;;;6289631;22;20140;-84
2022/10/31 09:14:20;;;;;;;2.17;1.35;;;18.60;58.80;;;;;;6259957;22;20156;-83
2022/10/31 09:16:46;;;;;;;1.80;1.38;;;18.70;58.90;;;;;;6256961;22;20141;-84
2022/10/31 09:19:30;;;;;;;1.70;1.30;;;18.60;59.00;;;;;;6233475;22;20152;-85
2022/10/31 09:22:00;;;;;;;2.17;1.70;;;18.60;59.00;;;;;;6235318;22;20231;-84
2022/10/31 09:24:44;;;;;;;1.65;1.40;;;18.70;59.20;;;;;;6227206;23;20181;-85
2022/10/31 09:27:12;;;;;;;1.52;1.23;;;18.70;59.10;;;;;;6154705;23;20154;-83
2022/10/31 09:30:00;;;;;;;1.67;1.58;;;18.70;59.10;;;;;;6230698;23;20204;-83
2022/10/31 09:32:39;;;;;;;2.13;1.45;;;18.70;59.10;;;;;;6180929;23;20150;-84
2022/10/31 09:35:06;;;;;;;1.70;1.50;;;18.70;59.00;;;;;;6170519;23;20254;-83
2022/10/31 09:37:32;;;;;;;3.00;1.52;;;18.80;58.90;;;;;;6169028;23;20154;-84
2022/10/31 09:40:05;;;;;;;1.77;1.45;;;18.80;58.80;;;;;;6168913;23;20161;-85
2022/10/31 09:42:57;;;;;;;3.40;1.55;;;18.70;58.90;;;;;;6167530;23;20158;-83
2022/10/31 09:45:45;;;;;;;2.47;1.60;;;18.70;59.00;;;;;;6132132;23;20184;-83
2022/10/31 09:48:50;;;;;;;3.58;1.23;;;18.70;59.10;;;;;;6135356;23;20493;-84
2022/10/31 09:51:34;;;;;;;1.98;1.20;;;18.70;59.10;;;;;;6106254;23;20152;-85
2022/10/31 09:54:22;;;;;;;3.15;1.38;;;18.70;59.10;;;;;;6104187;23;20156;-84
2022/10/31 09:56:51;;;;;;;2.47;1.55;;;18.70;59.30;;;;;;6019350;23;20166;-84
2022/10/31 09:59:34;;;;;;;2.75;1.42;;;18.70;59.10;;;;;;6044677;23;20226;-85
2022/10/31 10:02:03;;;;;;;2.85;1.65;;;18.80;59.10;;;;;;6049341;23;20277;-85
2022/10/31 10:04:46;;;;;;;2.85;1.40;;;18.70;59.00;;;;;;6047782;23;20662;-84
2022/10/31 10:07:39;;;;;;;5.22;1.40;;;18.70;59.10;;;;;;6052270;23;20550;-85
2022/10/31 10:10:22;;;;;;;5.30;1.30;;;18.70;59.20;;;;;;6106205;23;20160;-84
2022/10/31 10:13:06;;;;;;;4.13;1.58;;;18.70;59.40;;;;;;6106937;23;20195;-84
2022/10/31 10:16:03;;;;;;;2.65;1.40;;;18.70;59.40;;;;;;6107951;23;20159;-85
2022/10/31 10:19:01;;;;;;;4.28;1.38;;;18.70;59.40;;;;;;6128214;23;20235;-84
2022/10/31 10:21:44;;;;;;;6.88;1.55;;;18.70;59.40;;;;;;6109193;23;20170;-83
2022/10/31 10:24:33;;;;;;;5.38;1.40;;;18.70;59.40;;;;;;6169186;23;20209;-83
2022/10/31 10:27:17;;;;;;;2.30;1.55;;;18.70;59.40;;;;;;6239131;22;20155;-83
2022/10/31 10:29:50;;;;;;;6.10;1.60;;;18.70;59.50;;;;;;6286562;22;20143;-84
2022/10/31 10:32:24;;;;;;;5.55;1.63;;;18.70;59.50;;;;;;6258814;22;20136;-83
2022/10/31 10:35:08;;;;;;;6.97;1.88;;;18.70;60.40;;;;;;6210237;22;20159;-83
2022/10/31 10:37:43;;;;;;;5.03;1.70;;;18.70;59.70;;;;;;6294863;22;20140;-84
2022/10/31 10:40:24;;;;;;;5.90;1.80;;;18.70;59.60;;;;;;6222895;22;20147;-82
2022/10/31 10:43:23;;;;;;;11.18;2.00;;;18.70;59.60;;;;;;6224420;22;20196;-82
2022/10/31 10:49:36;;;;;;;3.15;1.52;;;18.70;59.70;;;;;;6301881;22;20182;-84
2022/10/31 10:52:34;;;;;;;3.85;1.48;;;18.80;59.80;;;;;;6226345;22;20162;-85
2022/10/31 10:55:33;;;;;;;3.75;1.38;;;18.70;59.70;;;;;;6296244;22;20132;-84
2022/10/31 10:58:01;;;;;;;7.32;2.15;;;18.70;59.70;;;;;;6259991;22;20168;-84
2022/10/31 11:00:46;;;;;;;5.13;1.50;;;18.70;59.70;;;;;;6286556;22;20132;-85
2022/10/31 11:03:12;;;;;;;3.53;1.42;;;18.80;59.80;;;;;;6317760;22;20196;-83
2022/10/31 11:05:53;;;;;;;4.25;1.40;;;18.80;59.70;;;;;;6243522;22;20248;-82
2022/10/31 11:08:32;;;;;;;5.97;1.50;;;18.70;59.80;;;;;;6315616;22;20128;-84
2022/10/31 11:11:25;;;;;;;3.97;1.50;;;18.80;59.80;;;;;;6289420;22;20132;-83
2022/10/31 11:13:55;;;;;;;7.88;1.65;;;18.80;59.90;;;;;;6286064;22;20665;-83
2022/10/31 11:16:36;;;;;;;4.97;1.60;;;18.80;59.90;;;;;;6261597;22;20140;-82
2022/10/31 11:19:16;;;;;;;4.40;1.40;;;18.80;59.90;;;;;;6257866;22;20204;-84
2022/10/31 11:22:08;;;;;;;3.97;1.50;;;18.80;59.80;;;;;;6260560;22;20140;-83
2022/10/31 11:24:39;;;;;;;2.72;1.40;;;18.80;59.80;;;;;;6212622;22;20179;-83
2022/10/31 11:27:16;;;;;;;4.47;1.60;;;18.80;59.90;;;;;;6282994;22;20168;-83
2022/10/31 11:29:43;;;;;;;3.60;1.40;;;18.70;59.90;;;;;;6257722;22;20197;-83
2022/10/31 11:32:24;;;;;;;4.78;1.60;;;18.80;60.00;;;;;;6285978;22;20137;-83
2022/10/31 11:34:56;;;;;;;3.30;1.45;;;18.80;59.90;;;;;;6257999;22;20670;-83
2022/10/31 11:37:29;;;;;;;4.07;1.35;;;18.80;59.90;;;;;;6258287;22;20151;-83
2022/10/31 11:39:58;;;;;;;2.58;1.52;;;18.80;60.00;;;;;;6209512;22;20151;-84
2022/10/31 11:42:27;;;;;;;1.73;1.30;;;18.80;60.10;;;;;;6258190;22;20235;-84
2022/10/31 11:44:57;;;;;;;5.00;1.52;;;18.80;60.10;;;;;;6257171;22;20242;-85
2022/10/31 11:47:29;;;;;;;4.15;1.30;;;18.80;60.10;;;;;;6207020;22;20148;-83
2022/10/31 11:49:55;;;;;;;2.88;1.50;;;18.80;60.10;;;;;;6260481;22;20132;-82
2022/10/31 11:52:29;;;;;;;3.42;1.67;;;18.80;60.10;;;;;;6267761;22;20136;-83
2022/10/31 11:55:05;;;;;;;3.83;1.60;;;18.80;60.10;;;;;;6194413;22;20161;-83
2022/10/31 11:57:53;;;;;;;1.98;1.55;;;18.80;60.10;;;;;;6295357;22;20159;-83
2022/10/31 12:00:25;;;;;;;2.67;1.40;;;18.70;60.10;;;;;;6194119;22;20147;-83
2022/10/31 12:02:51;;;;;;;4.93;1.38;;;18.80;60.20;;;;;;6270473;22;20224;-83
2022/10/31 12:05:19;;;;;;;4.32;1.30;;;18.80;60.20;;;;;;6268556;22;20243;-83
2022/10/31 12:07:50;;;;;;;2.58;1.52;;;18.70;60.20;;;;;;6263085;22;20144;-84
2022/10/31 12:10:16;;;;;;;2.05;1.30;;;18.70;60.30;;;;;;6264011;22;20156;-84
2022/10/31 12:13:13;;;;;;;2.80;1.52;;;18.80;60.40;;;;;;6267352;22;20140;-83
2022/10/31 12:16:08;;;;;;;2.38;1.40;;;18.80;60.40;;;;;;6273839;22;20152;-84
2022/10/31 12:19:13;;;;;;;3.50;1.50;;;18.80;60.50;;;;;;6219977;22;20152;-83
2022/10/31 12:22:03;;;;;;;3.42;1.55;;;18.70;60.50;;;;;;6320930;22;20592;-83
2022/10/31 12:24:43;;;;;;;2.53;1.30;;;18.80;60.60;;;;;;6319507;22;20167;-84
2022/10/31 12:27:22;;;;;;;3.30;1.25;;;18.70;60.50;;;;;;6318679;22;20136;-83
2022/10/31 12:30:06;;;;;;;1.80;1.30;;;18.70;60.60;;;;;;6267699;22;20168;-83
2022/10/31 12:32:53;;;;;;;2.13;1.40;;;18.70;60.60;;;;;;6268038;22;20148;-83
2022/10/31 12:36:06;;;;;;;1.60;1.30;;;18.70;60.70;;;;;;6297258;22;20147;-84
2022/10/31 12:38:48;;;;;;;2.05;1.33;;;18.80;60.70;;;;;;6300873;22;20164;-84
2022/10/31 12:41:43;;;;;;;2.20;1.30;;;18.70;60.70;;;;;;6288963;22;20150;-84
2022/10/31 12:44:44;;;;;;;2.78;1.50;;;18.80;60.70;;;;;;6272164;22;20187;-84
2022/10/31 12:47:28;;;;;;;3.30;1.50;;;18.80;61.40;;;;;;6292767;22;20136;-84
2022/10/31 12:50:23;;;;;;;3.30;1.40;;;18.80;60.70;;;;;;6259333;22;20147;-85
2022/10/31 12:53:12;;;;;;;2.13;1.30;;;18.80;60.70;;;;;;6263857;22;20141;-84
2022/10/31 12:56:08;;;;;;;3.63;1.50;;;18.80;60.80;;;;;;6285972;22;20597;-84
2022/10/31 12:58:37;;;;;;;3.05;1.20;;;18.80;60.80;;;;;;6261223;22;20601;-84
2022/10/31 13:01:22;;;;;;;4.10;1.30;;;18.80;60.80;;;;;;6259543;22;20217;-85
2022/10/31 13:03:55;;;;;;;3.50;1.40;;;18.80;60.90;;;;;;6267544;22;20211;-85
2022/10/31 13:06:27;;;;;;;2.90;1.40;;;18.80;60.80;;;;;;6283823;22;20125;-85
2022/10/31 13:08:58;;;;;;;4.57;1.40;;;18.80;60.80;;;;;;6284709;22;20136;-84
2022/10/31 13:11:28;;;;;;;4.82;1.70;;;18.80;60.90;;;;;;6258008;22;20144;-83
2022/10/31 13:14:00;;;;;;;3.20;1.63;;;18.80;60.90;;;;;;6285624;22;20171;-84
2022/10/31 13:16:30;;;;;;;4.28;1.40;;;18.80;60.90;;;;;;6258735;22;20148;-84
2022/10/31 13:19:03;;;;;;;1.58;1.42;;;18.90;61.00;;;;;;6283510;22;20128;-84